Observations for Trim Patrick St
| Time | AQI | Temp °C | Hum % | Pres Pa | CO μg/m³ | H₂S μg/m³ | NO μg/m³ | NO₂ μg/m³ | O₃ μg/m³ | SO₂ μg/m³ | PM1 μg/m³ | PM2.5 μg/m³ | PM10 μg/m³ |
|---|---|---|---|---|---|---|---|---|---|---|---|---|---|
| Tuesday 4 August 2026 | |||||||||||||
| 17:05 | 2 | 30 | 52 | 69,806 | 0 | 0 | 0.85 | 12.95 | 71.38 | 15.82 | 2.86 | 7.8 | 8.58 |
| 17:04 | 2 | 29.9 | 52 | 69,795 | 0 | 0 | 0.94 | 11.82 | 65.79 | 15.99 | 3.71 | 8.56 | 9.42 |
| 17:03 | 2 | 29.8 | 51 | 69,740 | 0 | 0 | 0.91 | 8.89 | 64.59 | 16.36 | 3.71 | 8.65 | 9.52 |
| 17:02 | 2 | 29.9 | 50 | 69,707 | 0 | 0 | 0.87 | 8.8 | 62.39 | 16.1 | 2.86 | 7.93 | 8.73 |
| 17:01 | 2 | 29.9 | 52 | 69,669 | 0 | 0 | 1.02 | 7.02 | 62.64 | 16.21 | 2.86 | 7.82 | 8.6 |
| 17:00 | 2 | 30 | 51 | 69,630 | 0 | 0 | 1.05 | 5.35 | 59.31 | 16.64 | 4.57 | 10.16 | 11.18 |
| 16:59 | 2 | 30.1 | 50 | 69,636 | 0 | 0 | 0.94 | 4.01 | 62.93 | 16.13 | 3.71 | 7.91 | 8.7 |
| 16:58 | 2 | 30.2 | 51 | 69,624 | 0 | 0 | 1.02 | 3.8 | 57.78 | 16.02 | 2.86 | 7.87 | 8.66 |
| 16:57 | 2 | 30.3 | 49 | 69,638 | 0 | 0 | 0.89 | 0 | 31.55 | 16.17 | 2.86 | 7.24 | 7.97 |
| 16:56 | 2 | 30.4 | 51 | 69,661 | 0 | 0 | 1 | 0 | 21.1 | 15.83 | 2.86 | 7.85 | 8.63 |
| 16:55 | 2 | 30.5 | 52 | 69,689 | 0 | 0 | 1.02 | 6.42 | 52.56 | 17.21 | 2.86 | 7.82 | 8.6 |
| 16:54 | 2 | 30.7 | 50 | 69,681 | 0 | 0 | 0.92 | 5.4 | 34.93 | 17.35 | 2.86 | 7.95 | 8.74 |
| 16:53 | 2 | 30.8 | 50 | 69,697 | 0 | 0 | 0.93 | 6.5 | 44.62 | 17.08 | 3.71 | 7.95 | 8.74 |
| 16:52 | 2 | 30.9 | 50 | 69,687 | 0 | 0 | 0.99 | 3.56 | 41.06 | 17.43 | 3.71 | 8.68 | 9.55 |
| 16:51 | 2 | 31 | 50 | 69,709 | 0 | 0 | 1.03 | 9.85 | 33.47 | 16.8 | 3.71 | 8.7 | 9.57 |
| 16:50 | 2 | 31.1 | 51 | 69,695 | 0 | 0 | 1.11 | 9.47 | 59.61 | 18.31 | 2.86 | 8.63 | 9.49 |
| 16:49 | 2 | 31.2 | 52 | 69,713 | 0 | 0 | 1.18 | 4.7 | 39.06 | 16.92 | 2.86 | 7.83 | 8.61 |
| 16:48 | 2 | 31.2 | 50 | 69,713 | 0 | 0 | 1.03 | 5.55 | 27.9 | 16.52 | 4.57 | 9.44 | 10.38 |
| 16:47 | 2 | 31.3 | 50 | 69,717 | 0.36 | 0 | 1.04 | 2.16 | 12.83 | 18.62 | 4.57 | 8.68 | 9.54 |
| 16:46 | 2 | 31.5 | 51 | 69,752 | 0 | 0 | 0.91 | 5.64 | 18.4 | 17.76 | 2.86 | 7.87 | 8.66 |